Muirhead, United Kingdom
Current Conditions -  °F | °C
As of 11:50 AM on Friday 28 Nov 2014 (Local Time) from EGPN Reporting Station
Broken Clouds Broken Clouds  
Wind Chill: 50°   Ceiling: 4500
Heat Index: 50°   Visibility: 4mi
Dew Point: 50°   Wind: 10mph
Humidity: 100%   Direction: 100°E
Pressure: 29.8"   Gusts: NA
Location:  56.5°N, 3.07°W
Report Text: EGPN 281150Z 10009KT 6000 SCT007 BKN045 10/10 Q1009
Loading
Personal Weather Stations






























Interactive Weather Map New forecast layout! Learn more

10-Day Weather Forecast

Advertisements
Track Severe Weather on mobile